Time;durP1;ratioP1;P1;durP2;ratioP2;P2;SDS_P1;SDS_P2;PMS_P1;PMS_P2;Temp;Humidity;BMP_temperature;BMP_pressure;BME280_temperature;BME280_humidity;BME280_pressure;Samples;Min_cycle;Max_cycle;Signal;HPM_P1;HPM_P2
2021/04/06 00:01:32;;;;;;;87.63;58.50;;;256.50;1433.60;;;;;;4992686;28;20073;-68
2021/04/06 00:03:59;;;;;;;68.13;49.58;;;256.50;1433.60;;;;;;4992035;28;20069;-68
2021/04/06 00:06:27;;;;;;;79.60;56.30;;;256.50;1408.00;;;;;;4992197;28;20062;-68
2021/04/06 00:08:53;;;;;;;85.03;56.33;;;256.60;1408.00;;;;;;4992191;28;20022;-68
2021/04/06 00:11:21;;;;;;;92.13;57.50;;;256.60;1433.60;;;;;;4992030;28;20034;-71
2021/04/06 00:13:47;;;;;;;88.93;57.35;;;256.60;1433.60;;;;;;4995047;28;20109;-70
2021/04/06 00:16:14;;;;;;;91.05;58.08;;;256.40;1433.60;;;;;;4996055;28;20045;-71
2021/04/06 00:18:40;;;;;;;82.63;52.55;;;256.20;1459.20;;;;;;4993327;28;20011;-71
2021/04/06 00:21:08;;;;;;;73.22;46.92;;;256.20;1459.20;;;;;;4993337;28;20106;-72
2021/04/06 00:23:34;;;;;;;63.70;43.47;;;231.20;1484.80;;;;;;4986669;28;20022;-72
2021/04/06 00:26:01;;;;;;;58.72;39.67;;;230.90;1510.40;;;;;;4996177;28;20030;-72
2021/04/06 00:28:32;;;;;;;42.95;28.60;;;231.00;1510.40;;;;;;4996073;28;20044;-70
2021/04/06 00:30:58;;;;;;;40.25;25.90;;;;;;;;;;4993637;28;20022;-70
2021/04/06 00:33:27;;;;;;;40.05;24.42;;;;;;;;;;4995951;28;20034;-70
2021/04/06 00:35:55;;;;;;;46.42;30.55;;;;;;;;;;4995697;28;20026;-70
2021/04/06 00:38:24;;;;;;;50.10;32.88;;;231.20;1484.80;;;;;;4995793;28;20038;-74
2021/04/06 00:40:56;;;;;;;67.70;41.67;;;231.20;1484.80;;;;;;4995889;28;20030;-72
2021/04/06 00:43:40;;;;;;;68.88;45.85;;;256.00;1484.80;;;;;;4975250;28;20066;-73
2021/04/06 00:46:12;;;;;;;67.95;42.33;;;256.00;1484.80;;;;;;4996227;28;20101;-72
2021/04/06 00:48:43;;;;;;;53.50;33.83;;;231.20;1510.40;;;;;;4996005;28;20022;-70
2021/04/06 00:51:11;;;;;;;53.70;32.70;;;231.20;1510.40;;;;;;4996149;28;20041;-69
2021/04/06 00:53:53;;;;;;;47.35;30.67;;;231.30;1484.80;;;;;;4995997;28;20022;-72
2021/04/06 00:56:21;;;;;;;63.45;36.35;;;230.90;1510.40;;;;;;4995831;28;20042;-69
2021/04/06 00:58:56;;;;;;;67.85;41.70;;;231.00;1510.40;;;;;;4995795;28;20022;-67
2021/04/06 01:01:35;;;;;;;63.85;39.75;;;231.10;1510.40;;;;;;4996011;28;20034;-67
2021/04/06 01:04:09;;;;;;;50.38;34.08;;;231.20;1484.80;;;;;;4995714;28;20027;-67
2021/04/06 01:06:51;;;;;;;53.03;32.85;;;230.90;1510.40;;;;;;4995903;28;20397;-67
2021/04/06 01:09:18;;;;;;;53.13;34.80;;;230.60;1561.60;;;;;;4995585;28;20105;-68
2021/04/06 01:11:45;;;;;;;49.90;30.20;;;230.80;1536.00;;;;;;4984122;28;20034;-68
2021/04/06 01:14:17;;;;;;;35.85;24.40;;;231.00;1484.80;;;;;;4993731;28;20089;-68
2021/04/06 01:16:45;;;;;;;34.35;21.42;;;230.90;1484.80;;;;;;4993400;28;20378;-68
2021/04/06 01:19:12;;;;;;;38.70;26.25;;;230.90;1484.80;;;;;;4995517;28;20206;-72
2021/04/06 01:21:37;;;;;;;30.33;20.35;;;230.70;1536.00;;;;;;4995202;28;20027;-72
2021/04/06 01:24:07;;;;;;;22.48;15.65;;;;;;;;;;4994540;28;20085;-72
2021/04/06 01:26:33;;;;;;;27.85;17.38;;;;;;;;;;4995373;28;20065;-72
2021/04/06 01:29:00;;;;;;;25.38;17.00;;;230.60;2022.40;;;;;;4977941;28;20031;-71
2021/04/06 01:31:26;;;;;;;28.55;19.25;;;230.70;1484.80;;;;;;4995446;28;20077;-71
2021/04/06 01:33:52;;;;;;;32.78;21.05;;;230.90;1459.20;;;;;;4995377;28;20157;-70
2021/04/06 01:36:26;;;;;;;28.00;19.92;;;230.70;1484.80;;;;;;4995082;28;20059;-74
2021/04/06 01:38:52;;;;;;;29.35;21.35;;;230.70;1484.80;;;;;;4995166;28;20093;-72
2021/04/06 01:41:18;;;;;;;30.17;19.17;;;230.50;1510.40;;;;;;4995166;28;20481;-73
2021/04/06 01:43:49;;;;;;;30.40;21.00;;;;;;;;;;4995109;28;20026;-73
2021/04/06 01:46:17;;;;;;;30.53;20.60;;;;;;;;;;4995256;28;20389;-74
2021/04/06 01:48:46;;;;;;;28.27;19.48;;;;;;;;;;4995004;28;20264;-75
2021/04/06 01:51:14;;;;;;;29.30;19.65;;;;;;;;;;4976764;28;20416;-74
2021/04/06 01:53:41;;;;;;;31.42;18.35;;;;;;;;;;4994917;28;20021;-72
2021/04/06 01:56:13;;;;;;;28.55;18.13;;;230.50;1484.80;;;;;;4994924;28;20072;-71
2021/04/06 01:58:43;;;;;;;25.02;17.67;;;205.60;1510.40;;;;;;4994778;28;20034;-72
2021/04/06 02:01:19;;;;;;;27.50;18.85;;;205.50;1536.00;;;;;;4986340;28;20153;-72
2021/04/06 02:04:08;;;;;;;32.78;19.38;;;205.50;1536.00;;;;;;4975204;28;20512;-72
2021/04/06 02:06:38;;;;;;;35.78;20.52;;;205.50;1536.00;;;;;;4994204;28;20026;-72
2021/04/06 02:09:08;;;;;;;32.17;20.05;;;205.50;1536.00;;;;;;4994632;28;20144;-73
2021/04/06 02:11:36;;;;;;;38.13;22.33;;;230.50;1510.40;;;;;;4994708;28;20046;-73
2021/04/06 02:14:14;;;;;;;35.97;23.02;;;230.40;1510.40;;;;;;4991519;28;20150;-73
2021/04/06 02:16:51;;;;;;;30.98;20.88;;;205.20;1536.00;;;;;;4985298;28;20050;-71
2021/04/06 02:19:26;;;;;;;46.85;23.33;;;205.30;1536.00;;;;;;4980916;28;20025;-74
2021/04/06 02:21:59;;;;;;;29.48;18.63;;;205.40;1536.00;;;;;;4994616;28;20370;-70
2021/04/06 02:24:35;;;;;;;25.52;17.65;;;205.60;1510.40;;;;;;4980790;28;20015;-71
2021/04/06 02:27:05;;;;;;;28.05;18.08;;;205.70;1484.80;;;;;;4994360;28;20034;-70
2021/04/06 02:29:36;;;;;;;26.60;17.20;;;205.70;1484.80;;;;;;4994220;28;20030;-72
2021/04/06 02:32:06;;;;;;;28.52;17.98;;;205.70;1510.40;;;;;;4994530;28;20049;-72
2021/04/06 02:34:39;;;;;;;34.60;21.83;;;;;;;;;;4994155;28;20061;-74
2021/04/06 02:37:10;;;;;;;35.78;22.42;;;204.90;1561.60;;;;;;4993888;28;20043;-72
2021/04/06 02:39:39;;;;;;;35.83;21.45;;;205.30;1536.00;;;;;;4994127;28;20105;-69
2021/04/06 02:42:26;;;;;;;28.27;18.77;;;205.40;1510.40;;;;;;4994004;28;20030;-69
2021/04/06 02:45:15;;;;;;;37.67;21.00;;;205.50;1510.40;;;;;;4993761;28;20033;-69
2021/04/06 02:47:52;;;;;;;25.10;16.20;;;205.30;1510.40;;;;;;4993779;28;20144;-69
2021/04/06 02:50:26;;;;;;;42.30;23.98;;;204.90;1561.60;;;;;;4993873;28;20022;-69
2021/04/06 02:52:53;;;;;;;36.33;20.20;;;180.10;1612.80;;;;;;4993945;28;20022;-70
2021/04/06 02:55:21;;;;;;;29.17;16.52;;;204.90;1587.20;;;;;;4990851;28;20027;-70
2021/04/06 02:57:50;;;;;;;27.33;15.57;;;204.80;1612.80;;;;;;4983189;28;20548;-69
2021/04/06 03:00:27;;;;;;;22.98;13.98;;;180.00;1587.20;;;;;;4993491;28;20045;-70
2021/04/06 03:03:26;;;;;;;37.28;14.73;;;;;;;;;;4992321;28;20022;-71
2021/04/06 03:08:34;;;;;;;17.95;11.13;;;205.00;1510.40;;;;;;5021848;23;20181;-70
2021/04/06 03:11:00;;;;;;;15.95;11.20;;;205.40;1484.80;;;;;;5013167;28;20026;-71
2021/04/06 03:13:27;;;;;;;14.25;10.93;;;205.30;1484.80;;;;;;5013367;28;20388;-70
2021/04/06 03:15:54;;;;;;;15.52;11.13;;;204.90;1536.00;;;;;;5004962;28;20380;-71
2021/04/06 03:21:04;;;;;;;20.40;12.70;;;204.90;1561.60;;;;;;5476581;23;20049;-70
2021/04/06 03:23:32;;;;;;;17.73;10.60;;;205.40;1510.40;;;;;;5013189;28;20014;-69
2021/04/06 03:25:58;;;;;;;15.07;9.93;;;205.50;1484.80;;;;;;5013016;28;20057;-73
2021/04/06 03:28:34;;;;;;;15.15;10.65;;;205.50;1484.80;;;;;;5012956;28;20026;-70
2021/04/06 03:31:09;;;;;;;13.18;10.05;;;;;;;;;;4982873;28;20098;-70
2021/04/06 03:33:39;;;;;;;14.60;9.98;;;179.80;1561.60;;;;;;5002924;28;20048;-72
2021/04/06 03:36:05;;;;;;;17.08;11.43;;;179.70;1561.60;;;;;;4994763;28;20045;-70
2021/04/06 03:38:32;;;;;;;18.73;12.35;;;;;;;;;;5012842;28;20065;-70
2021/04/06 03:40:58;;;;;;;15.63;11.20;;;179.70;1587.20;;;;;;5012675;28;20025;-71
2021/04/06 03:43:24;;;;;;;16.85;12.23;;;180.00;1536.00;;;;;;5012647;28;20033;-70
2021/04/06 03:45:54;;;;;;;20.00;12.45;;;;;;;;;;5012616;28;20076;-72
2021/04/06 03:48:21;;;;;;;19.00;11.15;;;205.00;1484.80;;;;;;5012089;28;20026;-73
2021/04/06 03:50:46;;;;;;;21.42;13.10;;;205.20;1484.80;;;;;;5012925;28;20034;-75
2021/04/06 03:53:12;;;;;;;26.48;16.95;;;205.30;1484.80;;;;;;4988125;28;20038;-70
2021/04/06 03:55:40;;;;;;;33.88;19.13;;;205.40;1484.80;;;;;;5011471;28;20080;-69
2021/04/06 03:58:17;;;;;;;37.75;20.75;;;205.40;1459.20;;;;;;4995041;28;20092;-69
2021/04/06 04:00:43;;;;;;;48.38;24.77;;;205.30;1459.20;;;;;;5012682;28;20087;-70
2021/04/06 04:03:08;;;;;;;46.00;25.98;;;205.10;1484.80;;;;;;5012551;28;20427;-69
2021/04/06 04:05:34;;;;;;;45.55;26.30;;;180.00;1510.40;;;;;;5012309;28;20025;-68
2021/04/06 04:08:01;;;;;;;48.53;29.10;;;180.10;1510.40;;;;;;4994397;28;20077;-68
2021/04/06 04:10:27;;;;;;;43.40;24.23;;;205.20;1510.40;;;;;;5003482;28;20025;-70
2021/04/06 04:12:54;;;;;;;51.92;27.25;;;205.30;1484.80;;;;;;5012731;28;20026;-69
2021/04/06 04:15:21;;;;;;;49.10;28.00;;;205.40;1484.80;;;;;;5012399;28;20030;-69
2021/04/06 04:17:53;;;;;;;58.75;33.83;;;205.50;1484.80;;;;;;5012122;28;20033;-69
2021/04/06 04:20:21;;;;;;;51.70;30.35;;;205.60;1459.20;;;;;;5012318;28;20057;-71
2021/04/06 04:22:48;;;;;;;53.30;30.15;;;;;;;;;;5012351;28;20029;-72
2021/04/06 04:25:14;;;;;;;63.05;34.58;;;;;;;;;;5012283;28;20029;-71
2021/04/06 04:27:41;;;;;;;66.55;37.83;;;;;;;;;;5012327;28;20469;-71
2021/04/06 04:30:08;;;;;;;68.75;39.08;;;205.60;1433.60;;;;;;5012252;28;20026;-72
2021/04/06 04:32:34;;;;;;;77.45;41.15;;;205.10;1510.40;;;;;;5012256;28;20021;-72
2021/04/06 04:34:59;;;;;;;67.60;42.42;;;205.10;1536.00;;;;;;5012271;28;20026;-71
2021/04/06 04:37:25;;;;;;;78.13;47.45;;;205.20;1510.40;;;;;;5012256;28;20040;-71
2021/04/06 04:39:51;;;;;;;74.18;44.08;;;205.20;1484.80;;;;;;5011893;28;20101;-71
2021/04/06 04:42:17;;;;;;;72.03;42.50;;;205.20;1459.20;;;;;;5003544;28;20074;-71
2021/04/06 04:44:43;;;;;;;63.00;39.40;;;205.30;1459.20;;;;;;5005903;28;20455;-72
2021/04/06 04:47:09;;;;;;;61.08;38.33;;;205.00;1484.80;;;;;;5011915;28;20018;-73
2021/04/06 04:49:34;;;;;;;67.13;40.50;;;205.10;1510.40;;;;;;5011860;28;20036;-73
2021/04/06 04:52:00;;;;;;;67.47;40.60;;;205.10;1510.40;;;;;;5012134;28;20029;-73
2021/04/06 04:54:27;;;;;;;75.45;41.40;;;204.90;1536.00;;;;;;5012048;28;20482;-73
2021/04/06 04:56:53;;;;;;;75.82;43.03;;;205.30;1484.80;;;;;;4994305;28;20037;-73
2021/04/06 04:59:19;;;;;;;66.75;37.05;;;205.50;1459.20;;;;;;5012697;28;20027;-75
2021/04/06 05:01:45;;;;;;;64.50;36.72;;;205.70;1459.20;;;;;;5002038;28;20077;-71
2021/04/06 05:04:10;;;;;;;56.35;32.08;;;230.40;1408.00;;;;;;5015285;28;20380;-69
2021/04/06 05:06:36;;;;;;;47.95;26.65;;;230.40;1408.00;;;;;;5015525;28;20033;-70
2021/04/06 05:09:03;;;;;;;42.85;23.73;;;230.40;1408.00;;;;;;5015336;28;20026;-70
2021/04/06 05:11:29;;;;;;;47.63;27.35;;;205.70;1408.00;;;;;;5005973;28;20022;-69
2021/04/06 05:13:55;;;;;;;45.10;28.42;;;205.60;1408.00;;;;;;5011227;28;20028;-69
2021/04/06 05:16:20;;;;;;;38.10;23.75;;;230.50;1382.40;;;;;;5015281;28;20034;-70
2021/04/06 05:18:46;;;;;;;47.97;25.38;;;230.70;1382.40;;;;;;5015210;28;20030;-71
2021/04/06 05:21:12;;;;;;;52.47;27.90;;;230.60;1356.80;;;;;;4993789;28;20046;-69
2021/04/06 05:23:39;;;;;;;54.85;27.92;;;230.70;1356.80;;;;;;4995709;28;20043;-69
2021/04/06 05:26:05;;;;;;;61.75;32.33;;;205.70;1408.00;;;;;;4977852;28;20389;-73
2021/04/06 05:28:31;;;;;;;62.22;34.35;;;205.60;1433.60;;;;;;4976096;28;20030;-72
2021/04/06 05:30:57;;;;;;;59.05;35.08;;;205.70;1408.00;;;;;;4976394;28;20049;-72
2021/04/06 05:33:23;;;;;;;69.00;37.83;;;230.40;1408.00;;;;;;4987547;28;20054;-72
2021/04/06 05:35:50;;;;;;;69.30;43.88;;;230.40;1408.00;;;;;;4989413;28;20101;-72
2021/04/06 05:38:16;;;;;;;77.85;46.05;;;205.40;1459.20;;;;;;4989125;28;20481;-71
2021/04/06 05:40:42;;;;;;;90.93;51.28;;;230.40;1433.60;;;;;;4988115;28;20465;-72
2021/04/06 05:43:09;;;;;;;96.68;58.47;;;230.90;1382.40;;;;;;4994933;28;20041;-72
2021/04/06 05:45:38;;;;;;;109.35;61.80;;;230.60;1408.00;;;;;;4995087;28;20102;-72
2021/04/06 05:48:05;;;;;;;106.05;61.85;;;230.50;1408.00;;;;;;4995136;28;20027;-69
2021/04/06 05:50:32;;;;;;;98.95;58.08;;;230.60;2048.00;;;;;;4974683;28;20477;-68
2021/04/06 05:52:59;;;;;;;87.50;50.72;;;230.90;1382.40;;;;;;4986690;28;20034;-68
2021/04/06 05:55:25;;;;;;;81.85;48.47;;;230.50;1408.00;;;;;;4991336;28;20019;-70
2021/04/06 05:57:54;;;;;;;105.25;56.95;;;230.70;1408.00;;;;;;4984794;28;20035;-70
2021/04/06 06:00:21;;;;;;;103.50;62.92;;;231.00;1382.40;;;;;;4994618;28;20022;-70
2021/04/06 06:02:47;;;;;;;81.40;45.92;;;231.10;1356.80;;;;;;4995351;28;20068;-70
2021/04/06 06:05:15;;;;;;;72.80;42.17;;;231.00;1382.40;;;;;;4994404;28;20129;-70
2021/04/06 06:07:41;;;;;;;106.93;64.00;;;230.90;1382.40;;;;;;4981784;28;20038;-72
2021/04/06 06:10:46;;;;;;;105.72;60.80;;;;;;;;;;4994391;28;20029;-72
2021/04/06 06:13:25;;;;;;;96.05;55.58;;;256.00;1331.20;;;;;;4934855;29;20031;-69
2021/04/06 06:16:09;;;;;;;85.10;50.38;;;231.30;1408.00;;;;;;4949823;29;20376;-69
2021/04/06 06:19:06;;;;;;;116.45;72.00;;;231.00;1331.20;;;;;;4946498;28;20541;-67
2021/04/06 06:21:49;;;;;;;146.55;97.07;;;256.20;1331.20;;;;;;4947166;28;20063;-72
2021/04/06 06:24:33;;;;;;;178.23;109.95;;;256.50;1331.20;;;;;;4956144;28;20039;-70
2021/04/06 06:29:34;;;;;;;155.73;92.25;;;256.70;1280.00;;;;;;5625192;23;20057;-70
2021/04/06 06:32:00;;;;;;;107.43;68.60;;;256.60;1280.00;;;;;;4994137;28;20074;-70
2021/04/06 06:34:28;;;;;;;117.75;71.47;;;256.50;1254.40;;;;;;4994009;28;20141;-71
2021/04/06 06:37:15;;;;;;;101.18;59.13;;;256.70;1254.40;;;;;;4994174;28;20037;-71
2021/04/06 06:40:06;;;;;;;61.45;33.80;;;256.20;1305.60;;;;;;4992715;28;20073;-71
2021/04/06 06:42:39;;;;;;;53.53;28.88;;;256.40;1254.40;;;;;;4994062;28;20026;-70
2021/04/06 06:45:21;;;;;;;58.65;35.83;;;256.30;1228.80;;;;;;4993771;28;20030;-72
2021/04/06 06:47:54;;;;;;;95.50;60.20;;;256.50;1228.80;;;;;;4993949;28;20115;-72
2021/04/06 06:50:20;;;;;;;76.68;41.45;;;256.50;1228.80;;;;;;4993900;28;20022;-71
2021/04/06 06:52:47;;;;;;;43.75;30.08;;;;;;;;;;4994148;28;20109;-70
2021/04/06 06:55:21;;;;;;;73.10;42.25;;;282.00;1177.60;;;;;;4990040;28;20042;-70
2021/04/06 06:57:49;;;;;;;318.95;208.77;;;282.00;1203.20;;;;;;4972444;28;20045;-70
2021/04/06 07:00:20;;;;;;;81.00;48.10;;;282.00;1203.20;;;;;;4993479;28;20048;-71
2021/04/06 07:02:46;;;;;;;57.50;33.63;;;282.20;1203.20;;;;;;4993630;28;20117;-71
2021/04/06 07:05:15;;;;;;;35.33;25.10;;;;;;;;;;4993551;28;20027;-70
2021/04/06 07:08:04;;;;;;;41.15;18.42;;;307.60;1228.80;;;;;;4993474;28;20126;-70
2021/04/06 07:10:34;;;;;;;36.45;23.13;;;307.50;1228.80;;;;;;4993426;28;20903;-69
2021/04/06 07:13:07;;;;;;;27.65;14.13;;;307.60;1280.00;;;;;;4990400;28;20020;-71
2021/04/06 07:15:37;;;;;;;20.05;13.95;;;307.70;1254.40;;;;;;4989239;28;20481;-71
2021/04/06 07:18:09;;;;;;;31.90;14.18;;;307.90;1254.40;;;;;;4956803;28;20474;-73
2021/04/06 07:20:38;;;;;;;39.30;16.65;;;307.90;1280.00;;;;;;4956104;28;20106;-76
2021/04/06 07:23:11;;;;;;;29.63;15.20;;;332.80;1331.20;;;;;;4953572;28;20038;-75
2021/04/06 07:25:40;;;;;;;26.65;13.75;;;308.10;1305.60;;;;;;4957966;28;20027;-77
2021/04/06 07:28:06;;;;;;;26.38;13.63;;;307.90;1331.20;;;;;;4959848;28;20369;-73
2021/04/06 07:30:32;;;;;;;29.13;14.13;;;308.10;1331.20;;;;;;4966359;28;20053;-72
2021/04/06 07:32:58;;;;;;;23.65;10.93;;;308.10;1331.20;;;;;;4971435;28;20023;-71
2021/04/06 07:35:26;;;;;;;21.13;9.43;;;307.90;1356.80;;;;;;4955272;28;20047;-72
2021/04/06 07:37:52;;;;;;;17.40;8.02;;;308.00;1356.80;;;;;;4958110;28;20078;-73
2021/04/06 07:40:21;;;;;;;20.95;9.20;;;308.00;1331.20;;;;;;4955461;28;20047;-70
2021/04/06 07:42:52;;;;;;;32.72;17.33;;;308.00;1356.80;;;;;;4955686;28;20027;-71
2021/04/06 07:45:24;;;;;;;20.33;10.90;;;308.10;1356.80;;;;;;4956333;28;20018;-71
2021/04/06 07:47:50;;;;;;;;;;;308.10;1331.20;;;;;;4958979;28;20026;-73
2021/04/06 07:50:33;;;;;;;28.85;11.35;;;308.10;1331.20;;;;;;4962688;28;19988;-70
2021/04/06 07:53:26;;;;;;;28.90;12.07;;;333.00;1356.80;;;;;;4966805;28;20029;-73
2021/04/06 07:55:54;;;;;;;16.83;9.40;;;333.00;1331.20;;;;;;4958878;28;20038;-75
2021/04/06 07:58:52;;;;;;;19.30;9.20;;;333.10;1331.20;;;;;;5099535;23;20493;-78
2021/04/06 08:01:29;;;;;;;18.55;10.70;;;332.90;1331.20;;;;;;4994565;28;20034;-77
2021/04/06 08:03:59;;;;;;;25.10;10.02;;;333.00;1331.20;;;;;;4975084;28;20023;-77
2021/04/06 08:06:48;;;;;;;14.48;7.25;;;332.90;1331.20;;;;;;4985856;28;20026;-71
2021/04/06 08:09:32;;;;;;;12.43;5.85;;;332.90;1305.60;;;;;;4993191;28;20026;-72
2021/04/06 08:12:24;;;;;;;12.65;7.05;;;308.10;1305.60;;;;;;4975041;28;20724;-72
2021/04/06 08:15:14;;;;;;;12.13;7.05;;;332.80;1305.60;;;;;;4992522;28;20014;-72
2021/04/06 08:17:45;;;;;;;33.80;11.85;;;332.80;1305.60;;;;;;5005216;28;20030;-70
2021/04/06 08:20:14;;;;;;;27.80;16.27;;;332.80;1305.60;;;;;;5011972;28;20058;-71
2021/04/06 08:22:59;;;;;;;24.00;11.40;;;308.10;1280.00;;;;;;5011953;28;20574;-71
2021/04/06 08:25:31;;;;;;;27.15;14.00;;;308.00;1280.00;;;;;;5011766;28;20035;-73
2021/04/06 08:27:58;;;;;;;24.00;12.73;;;307.90;1280.00;;;;;;5011461;28;20083;-71
2021/04/06 08:30:27;;;;;;;27.40;11.27;;;307.60;1280.00;;;;;;5011594;28;20536;-71
2021/04/06 08:32:59;;;;;;;23.70;14.30;;;307.70;1280.00;;;;;;4993811;28;20518;-71
2021/04/06 08:35:52;;;;;;;21.02;12.95;;;307.80;1254.40;;;;;;5015502;28;20014;-71
2021/04/06 08:41:03;;;;;;;;;;;307.80;1280.00;;;;;;5016085;28;20104;-71
2021/04/06 08:43:35;;;;;;;19.63;8.45;;;307.90;1254.40;;;;;;5032954;28;20280;-71
2021/04/06 08:46:02;;;;;;;;;;;307.80;1254.40;;;;;;5035918;28;20075;-72
2021/04/06 08:48:51;;;;;;;18.85;10.65;;;307.60;1280.00;;;;;;5035174;28;19920;-71
2021/04/06 08:51:29;;;;;;;53.28;22.85;;;307.60;1254.40;;;;;;5035307;28;20029;-72
2021/04/06 08:53:56;;;;;;;22.17;10.93;;;307.40;1254.40;;;;;;5035379;28;20041;-71
2021/04/06 08:56:24;;;;;;;20.30;11.00;;;307.40;1280.00;;;;;;5034812;28;20037;-71
2021/04/06 08:58:50;;;;;;;34.28;11.18;;;307.30;1254.40;;;;;;5034980;28;20102;-70
2021/04/06 09:01:15;;;;;;;15.02;8.93;;;307.40;1228.80;;;;;;5017227;28;20025;-70
2021/04/06 09:03:41;;;;;;;16.00;8.88;;;307.40;1254.40;;;;;;5034670;28;20041;-71
2021/04/06 09:06:12;;;;;;;30.08;14.07;;;307.40;1254.40;;;;;;5035133;28;20152;-71
2021/04/06 09:08:50;;;;;;;29.90;11.27;;;307.30;1254.40;;;;;;5034679;28;20501;-71
2021/04/06 09:11:21;;;;;;;22.02;9.95;;;307.40;1254.40;;;;;;5034970;28;20270;-71
2021/04/06 09:13:52;;;;;;;31.45;16.08;;;307.30;1254.40;;;;;;5034840;28;20017;-71
2021/04/06 09:16:32;;;;;;;25.77;13.20;;;307.40;1254.40;;;;;;5034675;28;20076;-71
2021/04/06 09:19:02;;;;;;;33.88;19.40;;;307.60;1254.40;;;;;;5034633;28;20113;-70
2021/04/06 09:21:29;;;;;;;32.95;14.98;;;307.50;1254.40;;;;;;5034625;28;20029;-70
2021/04/06 09:23:57;;;;;;;34.85;21.98;;;307.50;1254.40;;;;;;5034668;28;20491;-70
2021/04/06 09:26:24;;;;;;;32.20;14.65;;;307.50;1280.00;;;;;;5034606;28;20045;-71
2021/04/06 09:29:05;;;;;;;36.75;21.50;;;307.50;1280.00;;;;;;5034613;28;20025;-71
2021/04/06 09:31:33;;;;;;;23.73;14.82;;;307.50;1280.00;;;;;;5034635;28;20484;-71
2021/04/06 09:34:13;;;;;;;26.05;14.55;;;307.50;1280.00;;;;;;5034304;28;20105;-70
2021/04/06 09:36:40;;;;;;;22.10;13.20;;;307.50;1280.00;;;;;;5034610;28;20103;-70
2021/04/06 09:39:08;;;;;;;31.38;17.98;;;307.60;1280.00;;;;;;5021306;28;20033;-70
2021/04/06 09:41:37;;;;;;;34.50;17.25;;;307.50;1280.00;;;;;;5032952;28;20021;-72
2021/04/06 09:44:09;;;;;;;31.33;17.60;;;307.50;1280.00;;;;;;5034175;28;20017;-71
2021/04/06 09:46:41;;;;;;;31.63;19.92;;;307.50;1280.00;;;;;;5015426;28;20049;-71
2021/04/06 09:49:08;;;;;;;28.55;13.13;;;307.50;1280.00;;;;;;5034322;28;20056;-71
2021/04/06 09:51:34;;;;;;;18.48;12.27;;;307.50;1254.40;;;;;;5034108;28;20079;-70
2021/04/06 09:54:02;;;;;;;30.13;12.75;;;307.30;1280.00;;;;;;5034096;28;20098;-70
2021/04/06 09:56:29;;;;;;;17.23;8.88;;;307.40;1254.40;;;;;;5034134;28;20450;-71
2021/04/06 09:58:55;;;;;;;28.58;12.75;;;307.30;1254.40;;;;;;5033963;28;20124;-71
2021/04/06 10:01:25;;;;;;;19.83;11.23;;;307.40;1228.80;;;;;;5034025;28;20112;-70
2021/04/06 10:03:55;;;;;;;34.78;17.10;;;307.40;1228.80;;;;;;5033949;28;20021;-71
2021/04/06 10:06:21;;;;;;;37.45;17.35;;;307.50;1228.80;;;;;;5034109;28;20068;-71
2021/04/06 10:08:47;;;;;;;40.45;20.50;;;307.40;1228.80;;;;;;5033781;28;20053;-72
2021/04/06 10:11:23;;;;;;;32.17;19.33;;;307.30;1228.80;;;;;;5033932;28;20017;-71
2021/04/06 10:13:49;;;;;;;39.03;19.85;;;307.30;1203.20;;;;;;5033707;28;20044;-71
2021/04/06 10:16:16;;;;;;;30.88;18.35;;;307.30;1228.80;;;;;;5033592;28;20022;-71
2021/04/06 10:18:45;;;;;;;23.52;10.98;;;282.40;1177.60;;;;;;5033682;28;20033;-70
2021/04/06 10:21:25;;;;;;;30.38;15.43;;;282.40;1177.60;;;;;;5128764;23;20054;-76
2021/04/06 10:24:00;;;;;;;41.75;19.33;;;282.50;1152.00;;;;;;4996228;28;20029;-72
2021/04/06 10:26:26;;;;;;;44.97;24.55;;;282.50;1152.00;;;;;;5001050;28;20503;-72
2021/04/06 10:29:13;;;;;;;25.02;14.88;;;282.50;1152.00;;;;;;4996139;28;20034;-73
2021/04/06 10:31:53;;;;;;;48.33;25.45;;;282.40;1152.00;;;;;;5013820;28;20053;-72
2021/04/06 10:34:19;;;;;;;37.88;18.88;;;282.30;1177.60;;;;;;5013537;28;20416;-73
2021/04/06 10:37:07;;;;;;;33.95;14.45;;;282.50;1177.60;;;;;;5013514;28;20030;-73
2021/04/06 10:39:44;;;;;;;74.18;33.72;;;282.30;1203.20;;;;;;5013537;28;20022;-76
2021/04/06 10:42:13;;;;;;;36.85;20.70;;;282.30;1177.60;;;;;;5011860;28;20029;-76
2021/04/06 10:44:40;;;;;;;40.95;19.42;;;282.30;1177.60;;;;;;5013680;28;20073;-75
2021/04/06 10:47:06;;;;;;;41.38;20.48;;;282.10;1177.60;;;;;;5013254;28;20101;-75
2021/04/06 10:49:32;;;;;;;47.55;22.67;;;282.20;1177.60;;;;;;5013260;28;20137;-76
2021/04/06 10:52:01;;;;;;;39.53;21.75;;;282.00;1203.20;;;;;;5013372;28;20072;-72
2021/04/06 10:54:27;;;;;;;39.78;22.02;;;282.00;1203.20;;;;;;5013498;28;20029;-74
2021/04/06 10:56:56;;;;;;;25.65;12.18;;;282.00;1177.60;;;;;;5013192;28;20034;-76
2021/04/06 10:59:37;;;;;;;31.27;16.58;;;281.60;1203.20;;;;;;5013399;28;20056;-76
2021/04/06 11:02:03;;;;;;;22.33;10.40;;;281.60;1203.20;;;;;;5013199;28;20100;-76
2021/04/06 11:04:37;;;;;;;24.35;10.70;;;256.90;1203.20;;;;;;5013149;28;20032;-76
2021/04/06 11:07:05;;;;;;;22.10;12.88;;;256.80;1177.60;;;;;;4995272;28;20514;-76
2021/04/06 11:10:05;;;;;;;24.92;12.52;;;256.90;1203.20;;;;;;5013167;28;20018;-76
2021/04/06 11:12:30;;;;;;;29.27;20.13;;;281.60;1203.20;;;;;;4986521;28;20399;-75
2021/04/06 11:14:56;;;;;;;32.10;17.10;;;281.80;1203.20;;;;;;5012941;28;20026;-71
2021/04/06 11:17:24;;;;;;;30.02;16.98;;;281.70;1228.80;;;;;;4998912;28;20034;-78
2021/04/06 11:19:55;;;;;;;37.40;16.13;;;281.70;1203.20;;;;;;5012800;28;20116;-77
2021/04/06 11:22:21;;;;;;;27.02;16.05;;;281.70;1203.20;;;;;;5012443;28;20041;-71
2021/04/06 11:24:49;;;;;;;27.45;15.18;;;281.80;1203.20;;;;;;5012916;28;20113;-72
2021/04/06 11:27:18;;;;;;;28.38;13.35;;;281.90;1177.60;;;;;;5012753;28;20022;-71
2021/04/06 11:29:46;;;;;;;31.92;20.20;;;282.00;1177.60;;;;;;5012946;28;20072;-71
2021/04/06 11:32:18;;;;;;;25.88;14.70;;;282.00;1203.20;;;;;;4995294;28;20061;-71
2021/04/06 11:34:45;;;;;;;26.00;14.82;;;282.00;1177.60;;;;;;5012608;28;20096;-76
2021/04/06 11:37:12;;;;;;;41.33;24.27;;;282.00;1177.60;;;;;;5013019;28;20464;-71
2021/04/06 11:39:44;;;;;;;28.13;15.95;;;282.00;1203.20;;;;;;5012876;28;20029;-73
2021/04/06 11:42:12;;;;;;;16.77;8.48;;;282.00;1177.60;;;;;;5012490;28;20025;-69
2021/04/06 11:44:38;;;;;;;18.30;8.10;;;281.80;1203.20;;;;;;5012546;28;20021;-69
2021/04/06 11:47:05;;;;;;;16.50;11.02;;;281.70;1203.20;;;;;;5007956;28;20018;-66
2021/04/06 11:49:31;;;;;;;22.58;10.68;;;281.70;1203.20;;;;;;4998596;28;20030;-69
2021/04/06 11:51:57;;;;;;;22.67;10.32;;;256.90;1177.60;;;;;;5004617;28;20333;-70
2021/04/06 11:54:24;;;;;;;27.63;12.52;;;256.90;1177.60;;;;;;5005221;28;20515;-68
2021/04/06 11:56:50;;;;;;;28.70;13.25;;;281.70;1228.80;;;;;;5011059;28;20473;-68
2021/04/06 11:59:16;;;;;;;32.17;13.85;;;281.90;1177.60;;;;;;5009258;28;20022;-71
2021/04/06 12:01:43;;;;;;;81.68;51.03;;;281.60;1203.20;;;;;;5009524;28;20393;-68
2021/04/06 12:04:10;;;;;;;30.73;20.85;;;281.60;1228.80;;;;;;5004358;28;20018;-74
2021/04/06 12:06:36;;;;;;;39.28;20.55;;;281.60;1203.20;;;;;;4993528;28;20384;-68
2021/04/06 12:09:04;;;;;;;26.38;13.23;;;281.60;1203.20;;;;;;5007069;28;20021;-71
2021/04/06 12:11:29;;;;;;;33.20;18.30;;;256.80;1203.20;;;;;;5014145;28;20477;-70
2021/04/06 12:13:55;;;;;;;18.45;11.80;;;256.90;1177.60;;;;;;5012699;28;20022;-69
2021/04/06 12:16:22;;;;;;;22.65;11.38;;;256.70;1203.20;;;;;;5012967;28;20037;-74
2021/04/06 12:18:48;;;;;;;19.75;11.98;;;256.70;1228.80;;;;;;5013460;28;20022;-70
2021/04/06 12:21:14;;;;;;;34.03;22.73;;;256.80;1203.20;;;;;;5008470;28;20054;-69
2021/04/06 12:23:41;;;;;;;31.80;15.70;;;256.80;1177.60;;;;;;5009539;28;20115;-76
2021/04/06 12:26:07;;;;;;;34.03;15.90;;;256.80;1177.60;;;;;;4998144;28;20105;-70
2021/04/06 12:28:34;;;;;;;31.55;13.77;;;;;;;;;;4978972;28;20177;-70
2021/04/06 12:31:00;;;;;;;20.52;13.15;;;;;;;;;;4996445;28;20503;-70
2021/04/06 12:33:26;;;;;;;25.58;14.52;;;;;;;;;;4996257;28;20026;-70
2021/04/06 12:35:52;;;;;;;24.00;13.88;;;;;;;;;;4995884;28;20034;-70
2021/04/06 12:38:18;;;;;;;23.58;13.32;;;;;;;;;;4996252;28;20044;-70